Time;durP1;ratioP1;P1;durP2;ratioP2;P2;SDS_P1;SDS_P2;PMS_P1;PMS_P2;Temp;Humidity;BMP_temperature;BMP_pressure;BME280_temperature;BME280_humidity;BME280_pressure;Samples;Min_cycle;Max_cycle;Signal;HPM_P1;HPM_P2
2023/04/23 00:00:35;;;;;;;3.17;2.97;;;;;;;;;;5035743;28;20415;-57
2023/04/23 00:03:04;;;;;;;3.23;3.10;;;;;;;;;;5035755;28;20929;-57
2023/04/23 00:05:32;;;;;;;3.80;3.70;;;;;;;;;;5035545;28;20459;-58
2023/04/23 00:07:59;;;;;;;3.20;3.10;;;;;;;;;;5035524;28;20491;-57
2023/04/23 00:10:26;;;;;;;3.13;2.93;;;;;;;;;;5035575;28;20436;-57
2023/04/23 00:12:55;;;;;;;3.63;2.90;;;;;;;;;;5035521;28;20425;-57
2023/04/23 00:15:23;;;;;;;4.03;3.60;;;;;;;;;;5035433;28;20430;-58
2023/04/23 00:17:49;;;;;;;4.00;3.70;;;;;;;;;;5035339;28;20466;-58
2023/04/23 00:20:16;;;;;;;5.80;3.87;;;;;;;;;;5034011;28;20460;-58
2023/04/23 00:22:42;;;;;;;3.77;3.50;;;;;;;;;;5035386;28;20411;-58
2023/04/23 00:25:09;;;;;;;3.53;3.30;;;;;;;;;;5034000;28;20474;-58
2023/04/23 00:27:35;;;;;;;3.20;3.10;;;;;;;;;;5035144;28;20461;-57
2023/04/23 00:30:02;;;;;;;3.50;3.30;;;;;;;;;;5035129;28;20489;-57
2023/04/23 00:32:31;;;;;;;3.30;3.10;;;;;;;;;;5035320;28;20439;-58
2023/04/23 00:34:57;;;;;;;2.93;2.80;;;;;;;;;;5035112;28;20498;-57
2023/04/23 00:37:23;;;;;;;2.90;2.80;;;;;;;;;;5034781;28;20961;-58
2023/04/23 00:39:49;;;;;;;3.20;3.10;;;;;;;;;;5035010;28;20435;-58
2023/04/23 00:42:17;;;;;;;2.83;2.73;;;;;;;;;;5035008;28;20411;-58
2023/04/23 00:44:43;;;;;;;3.60;3.40;;;;;;;;;;5033541;28;20482;-57
2023/04/23 00:47:11;;;;;;;3.30;3.20;;;;;;;;;;5034961;28;20396;-58
2023/04/23 00:49:38;;;;;;;3.57;3.43;;;;;;;;;;5034722;28;20439;-58
2023/04/23 00:52:04;;;;;;;3.47;3.37;;;;;;;;;;5034912;28;20818;-57
2023/04/23 00:54:30;;;;;;;5.30;3.80;;;;;;;;;;5034534;28;20842;-58
2023/04/23 00:56:59;;;;;;;3.70;3.50;;;;;;;;;;5033312;28;20969;-55
2023/04/23 00:59:26;;;;;;;4.17;3.80;;;;;;;;;;5034415;28;20412;-57
2023/04/23 01:01:52;;;;;;;3.47;3.27;;;;;;;;;;5034533;28;20490;-55
2023/04/23 01:04:18;;;;;;;3.23;3.00;;;;;;;;;;5034067;28;20470;-58
2023/04/23 01:06:46;;;;;;;3.80;3.60;;;;;;;;;;5034546;28;20400;-57
2023/04/23 01:09:12;;;;;;;4.50;4.10;;;;;;;;;;5034451;28;20447;-58
2023/04/23 01:11:41;;;;;;;7.23;3.10;;;;;;;;;;5034338;28;20419;-58
2023/04/23 01:14:10;;;;;;;4.03;3.60;;;;;;;;;;5034306;28;20473;-58
2023/04/23 01:16:40;;;;;;;3.20;3.10;;;;;;;;;;5034397;28;20786;-57
2023/04/23 01:19:06;;;;;;;6.03;3.27;;;;;;;;;;5032948;28;20446;-56
2023/04/23 01:21:34;;;;;;;3.27;3.17;;;;;;;;;;5034357;28;20415;-56
2023/04/23 01:24:00;;;;;;;2.83;2.70;;;;;;;;;;5034183;28;20491;-56
2023/04/23 01:26:26;;;;;;;3.37;2.90;;;;;;;;;;5034125;28;20894;-56
2023/04/23 01:28:52;;;;;;;5.23;3.10;;;;;;;;;;5034149;28;20412;-56
2023/04/23 01:31:18;;;;;;;4.23;2.50;;;;;;;;;;5034053;28;20766;-56
2023/04/23 01:33:45;;;;;;;2.40;2.20;;;;;;;;;;5033952;28;20490;-55
2023/04/23 01:36:11;;;;;;;2.40;2.30;;;;;;;;;;5033845;28;20795;-56
2023/04/23 01:38:39;;;;;;;1.90;1.90;;;;;;;;;;5033868;28;20787;-56
2023/04/23 01:41:05;;;;;;;1.90;1.80;;;;;;;;;;5033853;28;20443;-56
2023/04/23 01:43:31;;;;;;;1.70;1.60;;;;;;;;;;5032511;28;20898;-56
2023/04/23 01:45:58;;;;;;;1.83;1.73;;;;;;;;;;5033535;28;20836;-56
2023/04/23 01:48:28;;;;;;;2.13;2.03;;;;;;;;;;5033588;28;20408;-55
2023/04/23 01:50:54;;;;;;;1.70;1.70;;;;;;;;;;5033531;28;20423;-56
2023/04/23 01:53:20;;;;;;;1.93;1.93;;;;;;;;;;5033581;28;20408;-56
2023/04/23 01:55:50;;;;;;;1.83;1.73;;;;;;;;;;5033273;28;20854;-56
2023/04/23 01:58:16;;;;;;;1.20;1.20;;;;;;;;;;5033517;28;20426;-56
2023/04/23 02:00:42;;;;;;;1.20;1.20;;;;;;;;;;5033406;28;20467;-56
2023/04/23 02:03:10;;;;;;;1.00;1.00;;;;;;;;;;5033375;28;20942;-56
2023/04/23 02:05:37;;;;;;;1.07;1.07;;;;;;;;;;5033181;28;20818;-56
2023/04/23 02:08:03;;;;;;;1.40;1.30;;;;;;;;;;5033213;28;20419;-56
2023/04/23 02:10:31;;;;;;;1.23;1.23;;;;;;;;;;5033178;28;20439;-56
2023/04/23 02:12:58;;;;;;;1.23;1.23;;;;;;;;;;5033177;28;20407;-55
2023/04/23 02:15:26;;;;;;;1.23;1.23;;;;;;;;;;5032868;28;20432;-56
2023/04/23 02:17:52;;;;;;;1.13;1.13;;;;;;;;;;5032824;28;20550;-56
2023/04/23 02:20:19;;;;;;;1.20;1.20;;;;;;;;;;5033004;28;20471;-54
2023/04/23 02:22:46;;;;;;;1.20;1.20;;;;;;;;;;5032861;28;20991;-55
2023/04/23 02:25:15;;;;;;;0.93;0.90;;;;;;;;;;5032802;28;20469;-56
2023/04/23 02:27:41;;;;;;;1.10;1.10;;;;;;;;;;5033277;28;20451;-57
2023/04/23 02:30:08;;;;;;;1.30;1.30;;;;;;;;;;5032922;28;20443;-57
2023/04/23 02:32:35;;;;;;;0.73;0.73;;;;;;;;;;5031651;28;20931;-55
2023/04/23 02:35:02;;;;;;;1.43;1.33;;;;;;;;;;5031452;28;20472;-56
2023/04/23 02:37:28;;;;;;;1.30;1.30;;;;;;;;;;5032685;28;20443;-56
2023/04/23 02:39:54;;;;;;;0.87;0.87;;;;;;;;;;5032691;28;20415;-56
2023/04/23 02:42:22;;;;;;;0.90;0.90;;;;;;;;;;5032729;28;20446;-56
2023/04/23 02:44:50;;;;;;;1.00;1.00;;;;;;;;;;5032840;28;20867;-55
2023/04/23 02:47:16;;;;;;;0.80;0.80;;;;;;;;;;5032757;28;20958;-56
2023/04/23 02:49:44;;;;;;;1.30;1.30;;;;;;;;;;5032710;28;20436;-56
2023/04/23 02:52:11;;;;;;;1.13;1.03;;;;;;;;;;5031206;28;20422;-55
2023/04/23 02:54:37;;;;;;;1.20;1.20;;;;;;;;;;5032551;28;20419;-56
2023/04/23 02:57:03;;;;;;;0.93;0.93;;;;;;;;;;5032551;28;20516;-55
2023/04/23 02:59:31;;;;;;;1.10;1.10;;;;;;;;;;5032540;28;20426;-56
2023/04/23 03:01:57;;;;;;;1.23;1.20;;;;;;;;;;5032405;28;20408;-55
2023/04/23 03:04:23;;;;;;;0.90;0.90;;;;;;;;;;5031132;28;20470;-56
2023/04/23 03:06:52;;;;;;;1.10;1.10;;;;;;;;;;5032285;28;20436;-55
2023/04/23 03:09:18;;;;;;;0.73;0.73;;;;;;;;;;5032284;28;20503;-55
2023/04/23 03:11:44;;;;;;;1.00;1.00;;;;;;;;;;5032352;28;20498;-56
2023/04/23 03:14:10;;;;;;;1.00;1.00;;;;;;;;;;5032178;28;20895;-55
2023/04/23 03:16:36;;;;;;;1.00;0.90;;;;;;;;;;5032381;28;20446;-55
2023/04/23 03:19:02;;;;;;;0.70;0.70;;;;;;;;;;5032225;28;20411;-55
2023/04/23 03:21:28;;;;;;;1.50;1.00;;;;;;;;;;5032288;28;20441;-55
2023/04/23 03:23:54;;;;;;;0.80;0.80;;;;;;;;;;5031033;28;20436;-55
2023/04/23 03:26:22;;;;;;;0.80;0.80;;;;;;;;;;5032158;28;20471;-55
2023/04/23 03:28:48;;;;;;;1.03;1.03;;;;;;;;;;5034492;28;20416;-55
2023/04/23 03:31:16;;;;;;;0.90;0.90;;;;;;;;;;5035961;28;20448;-56
2023/04/23 03:33:42;;;;;;;0.97;0.97;;;;;;;;;;5036144;28;20477;-55
2023/04/23 03:36:08;;;;;;;0.90;0.90;;;;;;;;;;5036140;28;20443;-55
2023/04/23 03:38:34;;;;;;;1.43;0.87;;;;;;;;;;5036158;28;20895;-55
2023/04/23 03:41:00;;;;;;;0.83;0.83;;;;;;;;;;5036033;28;20473;-54
2023/04/23 03:43:26;;;;;;;0.90;0.90;;;;;;;;;;5034740;28;20898;-55
2023/04/23 03:45:52;;;;;;;1.53;0.80;;;;;;;;;;5035923;28;20521;-55
2023/04/23 03:48:19;;;;;;;0.70;0.70;;;;;;;;;;5035993;28;20412;-55
2023/04/23 03:50:45;;;;;;;0.90;0.80;;;;;;;;;;5036155;28;20414;-55
2023/04/23 03:53:11;;;;;;;1.10;1.10;;;;;;;;;;5036088;28;20482;-56
2023/04/23 03:55:37;;;;;;;0.70;0.70;;;;;;;;;;5035856;28;20571;-56
2023/04/23 03:58:03;;;;;;;0.77;0.77;;;;;;;;;;5035736;28;20419;-55
2023/04/23 04:00:29;;;;;;;2.20;0.87;;;;;;;;;;5035739;28;20411;-56
2023/04/23 04:02:59;;;;;;;0.83;0.83;;;;;;;;;;5035966;28;20801;-56
2023/04/23 04:05:25;;;;;;;0.77;0.77;;;;;;;;;;5035477;28;20473;-56
2023/04/23 04:07:51;;;;;;;0.80;0.80;;;;;;;;;;5036229;28;20427;-56
2023/04/23 04:10:17;;;;;;;2.33;0.90;;;;;;;;;;5035689;28;20758;-55
2023/04/23 04:12:44;;;;;;;4.53;1.10;;;;;;;;;;5036963;28;20445;-56
2023/04/23 04:15:10;;;;;;;3.63;1.10;;;;;;;;;;5036234;28;20482;-55
2023/04/23 04:17:38;;;;;;;1.03;0.80;;;;;;;;;;5034284;28;20435;-56
2023/04/23 04:20:07;;;;;;;0.70;0.70;;;;;;;;;;5035561;28;20503;-56
2023/04/23 04:22:33;;;;;;;2.00;0.80;;;;;;;;;;5034127;28;20984;-56
2023/04/23 04:24:59;;;;;;;0.80;0.80;;;;;;;;;;5035297;28;20838;-56
2023/04/23 04:27:25;;;;;;;0.63;0.63;;;;;;;;;;5033885;28;20428;-56
2023/04/23 04:29:51;;;;;;;0.73;0.73;;;;;;;;;;5033897;28;20885;-56
2023/04/23 04:32:17;;;;;;;1.00;0.87;;;;;;;;;;5034962;28;20537;-56
2023/04/23 04:34:43;;;;;;;1.90;0.90;;;;;;;;;;5034907;28;20836;-55
2023/04/23 04:37:11;;;;;;;0.90;0.90;;;;;;;;;;5035044;28;20431;-56
2023/04/23 04:39:37;;;;;;;0.73;0.73;;;;;;;;;;5034587;28;20420;-56
2023/04/23 04:42:05;;;;;;;2.40;0.83;;;;;;;;;;5033690;28;20806;-56
2023/04/23 04:44:31;;;;;;;0.80;0.80;;;;;;;;;;5034709;28;20473;-55
2023/04/23 04:46:57;;;;;;;0.70;0.70;;;;;;;;;;5034789;28;20523;-56
2023/04/23 04:49:23;;;;;;;0.77;0.70;;;;;;;;;;5034823;28;20395;-56
2023/04/23 04:51:49;;;;;;;0.70;0.70;;;;;;;;;;5034644;28;20443;-56
2023/04/23 04:54:15;;;;;;;0.77;0.77;;;;;;;;;;5035007;28;20921;-56
2023/04/23 04:56:41;;;;;;;1.47;0.73;;;;;;;;;;5034507;28;20432;-56
2023/04/23 04:59:07;;;;;;;1.13;1.07;;;;;;;;;;5034933;28;20409;-57
2023/04/23 05:01:33;;;;;;;0.70;0.70;;;;;;;;;;5034943;28;20411;-57
2023/04/23 05:04:02;;;;;;;1.33;1.10;;;;;;;;;;5033950;28;20443;-57
2023/04/23 05:06:31;;;;;;;0.70;0.70;;;;;;;;;;5034586;28;20529;-55
2023/04/23 05:08:57;;;;;;;0.73;0.73;;;;;;;;;;5034605;28;20481;-56
2023/04/23 05:11:23;;;;;;;0.80;0.80;;;;;;;;;;5034398;28;20467;-55
2023/04/23 05:13:49;;;;;;;1.17;1.07;;;;;;;;;;5034530;28;20427;-56
2023/04/23 05:16:15;;;;;;;0.87;0.87;;;;;;;;;;5034668;28;20864;-56
2023/04/23 05:18:43;;;;;;;0.80;0.80;;;;;;;;;;5034249;28;20787;-56
2023/04/23 05:21:10;;;;;;;1.00;1.00;;;;;;;;;;5034422;28;20407;-56
2023/04/23 05:23:38;;;;;;;0.80;0.80;;;;;;;;;;5034032;28;20898;-56
2023/04/23 05:26:04;;;;;;;1.03;0.83;;;;;;;;;;5034068;28;20463;-56
2023/04/23 05:28:30;;;;;;;0.93;0.80;;;;;;;;;;5033777;28;20485;-55
2023/04/23 05:30:57;;;;;;;0.73;0.73;;;;;;;;;;5034197;28;20411;-56
2023/04/23 05:33:22;;;;;;;0.80;0.80;;;;;;;;;;5034011;28;20436;-56
2023/04/23 05:35:49;;;;;;;0.73;0.73;;;;;;;;;;5033943;28;20771;-56
2023/04/23 05:38:14;;;;;;;6.03;1.07;;;;;;;;;;5034016;28;20439;-56
2023/04/23 05:40:40;;;;;;;1.00;1.00;;;;;;;;;;5033913;28;20412;-55
2023/04/23 05:43:09;;;;;;;1.00;1.00;;;;;;;;;;5032481;28;20798;-56
2023/04/23 05:45:37;;;;;;;0.80;0.80;;;;;;;;;;5033632;28;20467;-55
2023/04/23 05:48:03;;;;;;;1.33;0.87;;;;;;;;;;5033650;28;20457;-56
2023/04/23 05:50:29;;;;;;;0.80;0.80;;;;;;;;;;5032845;28;20899;-55
2023/04/23 05:52:55;;;;;;;1.03;1.03;;;;;;;;;;5033128;28;20554;-55
2023/04/23 05:55:22;;;;;;;0.80;0.80;;;;;;;;;;5032317;28;20534;-55
2023/04/23 05:57:48;;;;;;;1.17;0.97;;;;;;;;;;5033415;28;20439;-56
2023/04/23 06:00:15;;;;;;;0.90;0.90;;;;;;;;;;5033049;28;20411;-54
2023/04/23 06:02:44;;;;;;;0.70;0.70;;;;;;;;;;5033185;28;20844;-56
2023/04/23 06:05:13;;;;;;;1.13;1.00;;;;;;;;;;5033069;28;20474;-56
2023/04/23 06:07:40;;;;;;;4.40;0.93;;;;;;;;;;5033228;28;20436;-56
2023/04/23 06:10:06;;;;;;;1.10;1.10;;;;;;;;;;5033102;28;20424;-56
2023/04/23 06:12:32;;;;;;;0.90;0.90;;;;;;;;;;5031970;28;20424;-56
2023/04/23 06:14:58;;;;;;;3.80;2.70;;;;;;;;;;5033073;28;20494;-55
2023/04/23 06:17:24;;;;;;;1.10;1.10;;;;;;;;;;5031974;28;20511;-56
2023/04/23 06:19:50;;;;;;;1.50;1.50;;;;;;;;;;5032934;28;20423;-56
2023/04/23 06:22:16;;;;;;;0.80;0.80;;;;;;;;;;5033126;28;20419;-54
2023/04/23 06:24:42;;;;;;;1.33;1.33;;;;;;;;;;5033300;28;20959;-55
2023/04/23 06:27:12;;;;;;;1.07;1.07;;;;;;;;;;5032607;28;20443;-54
2023/04/23 06:29:41;;;;;;;1.43;1.40;;;;;;;;;;5033209;28;20420;-56
2023/04/23 06:32:07;;;;;;;1.43;1.20;;;;;;;;;;5032766;28;20498;-56
2023/04/23 06:34:33;;;;;;;1.73;0.80;;;;;;;;;;5032708;28;20511;-56
2023/04/23 06:36:59;;;;;;;1.90;1.00;;;;;;;;;;5032766;28;20436;-55
2023/04/23 06:39:25;;;;;;;1.03;1.03;;;;;;;;;;5032199;28;20412;-57
2023/04/23 06:41:53;;;;;;;1.30;1.30;;;;;;;;;;5031324;28;20448;-55
2023/04/23 06:44:19;;;;;;;1.20;1.20;;;;;;;;;;5032444;28;20496;-56
2023/04/23 06:46:45;;;;;;;1.30;1.20;;;;;;;;;;5032753;28;20913;-56
2023/04/23 06:49:11;;;;;;;1.97;1.47;;;;;;;;;;5032599;28;20450;-57
2023/04/23 06:51:37;;;;;;;1.47;1.37;;;;;;;;;;5032546;28;20981;-57
2023/04/23 06:54:03;;;;;;;1.47;1.37;;;;;;;;;;5032141;28;20788;-57
2023/04/23 06:56:29;;;;;;;3.20;1.23;;;;;;;;;;5031369;28;20578;-56
2023/04/23 06:58:55;;;;;;;1.47;1.47;;;;;;;;;;5032303;28;20479;-57
2023/04/23 07:01:21;;;;;;;3.87;3.67;;;;;;;;;;5032870;28;20420;-57
2023/04/23 07:03:47;;;;;;;0.87;0.87;;;;;;;;;;5032360;28;20523;-57
2023/04/23 07:06:14;;;;;;;1.30;1.30;;;;;;;;;;5032828;28;20468;-57
2023/04/23 07:08:40;;;;;;;1.20;1.20;;;;;;;;;;5032372;28;20417;-57
2023/04/23 07:11:07;;;;;;;1.53;1.53;;;;;;;;;;5032532;28;20900;-57
2023/04/23 07:13:33;;;;;;;1.53;1.43;;;;;;;;;;5031874;28;20446;-57
2023/04/23 07:15:59;;;;;;;1.60;1.60;;;;;;;;;;5031583;28;20426;-56
2023/04/23 07:18:27;;;;;;;1.87;1.77;;;;;;;;;;5032247;28;20509;-57
2023/04/23 07:20:53;;;;;;;1.30;1.30;;;;;;;;;;5032293;28;20417;-57
2023/04/23 07:23:21;;;;;;;2.07;1.70;;;;;;;;;;5032406;28;20452;-57
2023/04/23 07:25:47;;;;;;;1.43;1.30;;;;;;;;;;5032168;28;20492;-57
2023/04/23 07:28:13;;;;;;;1.50;1.50;;;;;;;;;;5032140;28;20899;-57
2023/04/23 07:30:39;;;;;;;1.53;1.53;;;;;;;;;;5032309;28;20418;-57
2023/04/23 07:33:05;;;;;;;1.33;1.33;;;;;;;;;;5032200;28;20422;-57
2023/04/23 07:35:31;;;;;;;1.40;1.40;;;;;;;;;;5032379;28;20411;-57
2023/04/23 07:37:57;;;;;;;1.50;1.50;;;;;;;;;;5032166;28;20424;-56
2023/04/23 07:40:24;;;;;;;1.60;1.50;;;;;;;;;;5032395;28;20418;-55
2023/04/23 07:42:50;;;;;;;1.70;1.60;;;;;;;;;;5032365;28;20420;-54
2023/04/23 07:45:18;;;;;;;1.40;1.23;;;;;;;;;;5032098;28;20465;-54
2023/04/23 07:47:45;;;;;;;2.63;1.57;;;;;;;;;;5032183;28;20425;-57
2023/04/23 07:50:13;;;;;;;1.73;1.63;;;;;;;;;;5032079;28;20399;-57
2023/04/23 07:52:39;;;;;;;1.90;1.80;;;;;;;;;;5032113;28;20422;-57
2023/04/23 07:55:05;;;;;;;1.30;1.30;;;;;;;;;;5031941;28;20465;-56
2023/04/23 07:57:31;;;;;;;2.10;1.50;;;;;;;;;;5032032;28;20467;-57
2023/04/23 08:00:00;;;;;;;2.30;1.87;;;;;;;;;;5031929;28;20442;-56
2023/04/23 08:02:27;;;;;;;1.47;1.37;;;;;;;;;;5032110;28;20427;-57
2023/04/23 08:04:53;;;;;;;1.73;1.73;;;;;;;;;;5031908;28;20501;-57
2023/04/23 08:07:19;;;;;;;1.57;1.47;;;;;;;;;;5032007;28;20837;-57
2023/04/23 08:09:45;;;;;;;1.43;1.43;;;;;;;;;;5031990;28;20446;-57
2023/04/23 08:12:11;;;;;;;1.47;1.47;;;;;;;;;;5032073;28;20863;-55
2023/04/23 08:14:37;;;;;;;4.60;1.60;;;;;;;;;;5033292;28;20447;-57
2023/04/23 08:17:03;;;;;;;3.13;1.60;;;;;;;;;;5035810;28;20410;-56
2023/04/23 08:19:32;;;;;;;1.97;1.87;;;;;;;;;;5035487;28;20777;-56
2023/04/23 08:21:58;;;;;;;1.40;1.30;;;;;;;;;;5035494;28;20475;-56
2023/04/23 08:24:27;;;;;;;1.40;1.40;;;;;;;;;;5035357;28;20442;-56
2023/04/23 08:26:56;;;;;;;1.53;1.53;;;;;;;;;;5035421;28;20451;-56
2023/04/23 08:29:22;;;;;;;2.47;1.90;;;;;;;;;;5035303;28;20435;-55
2023/04/23 08:31:50;;;;;;;1.90;1.80;;;;;;;;;;5035292;28;20916;-55
2023/04/23 08:34:16;;;;;;;5.87;5.33;;;;;;;;;;5035097;28;20470;-57
2023/04/23 08:36:42;;;;;;;4.27;3.90;;;;;;;;;;5035449;28;20447;-56
2023/04/23 08:39:11;;;;;;;3.17;2.90;;;;;;;;;;5033792;28;21004;-56
2023/04/23 08:41:43;;;;;;;1.63;1.53;;;;;;;;;;5035139;28;20879;-55
2023/04/23 08:44:21;;;;;;;1.30;1.30;;;;;;;;;;5034835;28;20427;-56
2023/04/23 08:46:47;;;;;;;1.20;1.20;;;;;;;;;;5035009;28;20410;-57
2023/04/23 08:49:18;;;;;;;1.47;1.47;;;;;;;;;;5034884;28;20467;-56
2023/04/23 08:51:53;;;;;;;1.60;1.50;;;;;;;;;;5035019;28;20408;-56
2023/04/23 08:54:28;;;;;;;1.43;1.43;;;;;;;;;;5034795;28;20949;-57
2023/04/23 08:57:00;;;;;;;1.30;1.30;;;;;;;;;;5034818;28;20395;-57
2023/04/23 08:59:28;;;;;;;1.63;1.53;;;;;;;;;;5034596;28;20806;-56
2023/04/23 09:01:58;;;;;;;1.43;1.33;;;;;;;;;;5034711;28;20783;-56
2023/04/23 09:04:24;;;;;;;1.10;1.10;;;;;;;;;;5034498;28;20419;-56
2023/04/23 09:06:51;;;;;;;1.17;1.17;;;;;;;;;;5034693;28;20427;-56
2023/04/23 09:09:18;;;;;;;2.10;1.33;;;;;;;;;;5034405;28;20559;-56
2023/04/23 09:11:44;;;;;;;1.77;1.77;;;;;;;;;;5034324;28;20454;-56
2023/04/23 09:14:10;;;;;;;1.60;1.50;;;;;;;;;;5034469;28;20397;-56
2023/04/23 09:16:39;;;;;;;1.40;1.40;;;;;;;;;;5034508;28;20393;-56
2023/04/23 09:19:06;;;;;;;1.10;1.10;;;;;;;;;;5034464;28;20444;-55
2023/04/23 09:21:32;;;;;;;3.07;1.10;;;;;;;;;;5034174;28;20793;-57
2023/04/23 09:23:58;;;;;;;1.07;1.07;;;;;;;;;;5034592;28;20415;-56
2023/04/23 09:26:24;;;;;;;1.30;1.30;;;;;;;;;;5033843;28;20465;-57
2023/04/23 09:28:52;;;;;;;1.50;1.50;;;;;;;;;;5032786;28;20451;-57
2023/04/23 09:31:25;;;;;;;1.23;1.13;;;;;;;;;;5034085;28;20423;-57
2023/04/23 09:33:52;;;;;;;1.17;1.17;;;;;;;;;;5034303;28;20451;-57
2023/04/23 09:36:20;;;;;;;1.10;1.10;;;;;;;;;;5033996;28;20412;-56
2023/04/23 09:38:46;;;;;;;1.20;1.20;;;;;;;;;;5033837;28;20417;-57
2023/04/23 09:41:25;;;;;;;0.90;0.90;;;;;;;;;;5033834;28;20468;-57
2023/04/23 09:43:55;;;;;;;3.03;1.70;;;;;;;;;;5034020;28;20397;-57
2023/04/23 09:46:33;;;;;;;2.00;1.17;;;;;;;;;;5033774;28;20471;-57
2023/04/23 09:49:00;;;;;;;1.20;1.20;;;;;;;;;;5034077;28;20405;-57
2023/04/23 09:51:29;;;;;;;1.20;1.07;;;;;;;;;;5033559;28;20417;-57
2023/04/23 09:53:55;;;;;;;1.17;1.13;;;;;;;;;;5033783;28;20407;-57
2023/04/23 09:56:21;;;;;;;1.00;1.00;;;;;;;;;;5033655;28;20537;-55
2023/04/23 09:58:47;;;;;;;1.00;1.00;;;;;;;;;;5033757;28;20461;-57
2023/04/23 10:01:14;;;;;;;1.00;1.00;;;;;;;;;;5033562;28;20475;-56
2023/04/23 10:03:43;;;;;;;2.33;0.90;;;;;;;;;;5033835;28;20444;-56
2023/04/23 10:06:15;;;;;;;1.10;1.10;;;;;;;;;;5033400;28;20478;-55
2023/04/23 10:08:41;;;;;;;0.73;0.73;;;;;;;;;;5033288;28;20812;-56
2023/04/23 10:11:07;;;;;;;0.93;0.90;;;;;;;;;;5033233;28;20450;-55
2023/04/23 10:13:35;;;;;;;0.80;0.80;;;;;;;;;;5033251;28;20415;-55
2023/04/23 10:16:01;;;;;;;1.00;1.00;;;;;;;;;;5033366;28;20493;-55
2023/04/23 10:18:30;;;;;;;1.30;0.90;;;;;;;;;;5033346;28;20963;-56
2023/04/23 10:20:57;;;;;;;0.80;0.70;;;;;;;;;;5033472;28;20487;-57
2023/04/23 10:23:23;;;;;;;2.97;0.90;;;;;;;;;;5033164;28;20556;-56
2023/04/23 10:25:50;;;;;;;1.00;1.00;;;;;;;;;;5033036;28;20482;-56
2023/04/23 10:28:16;;;;;;;2.30;0.80;;;;;;;;;;5033029;28;20833;-56
2023/04/23 10:30:44;;;;;;;0.87;0.80;;;;;;;;;;5032760;28;20525;-57
2023/04/23 10:33:11;;;;;;;0.90;0.90;;;;;;;;;;5033086;28;20847;-57
2023/04/23 10:35:40;;;;;;;0.93;0.80;;;;;;;;;;5031611;28;20520;-55
2023/04/23 10:38:06;;;;;;;0.70;0.70;;;;;;;;;;5032102;28;20910;-57
2023/04/23 10:40:33;;;;;;;2.40;0.80;;;;;;;;;;5032712;28;20446;-56
2023/04/23 10:42:59;;;;;;;1.00;0.90;;;;;;;;;;5032264;28;20425;-57
2023/04/23 10:45:29;;;;;;;0.70;0.70;;;;;;;;;;5032748;28;20467;-56
2023/04/23 10:47:58;;;;;;;1.53;1.10;;;;;;;;;;5032718;28;20427;-57
2023/04/23 10:50:28;;;;;;;1.70;1.70;;;;;;;;;;5031396;28;20479;-57
2023/04/23 10:52:55;;;;;;;0.93;0.93;;;;;;;;;;5032729;28;20397;-56
2023/04/23 10:55:31;;;;;;;1.43;0.97;;;;;;;;;;5032594;28;20503;-57
2023/04/23 10:58:15;;;;;;;1.20;1.20;;;;;;;;;;5032548;28;20496;-57
2023/04/23 11:00:42;;;;;;;1.80;1.00;;;;;;;;;;5030995;28;20792;-55
2023/04/23 11:03:26;;;;;;;0.87;0.87;;;;;;;;;;5032321;28;20401;-55
2023/04/23 11:05:53;;;;;;;2.57;2.23;;;;;;;;;;5031969;28;20887;-55
2023/04/23 11:08:19;;;;;;;1.07;1.07;;;;;;;;;;5031934;28;20425;-55
2023/04/23 11:10:56;;;;;;;1.10;1.10;;;;;;;;;;5030984;28;20501;-55
2023/04/23 11:13:25;;;;;;;1.33;1.10;;;;;;;;;;5032448;28;20416;-57
2023/04/23 11:16:14;;;;;;;1.63;1.50;;;;;;;;;;5032129;28;20796;-56
2023/04/23 11:18:55;;;;;;;1.50;1.40;;;;;;;;;;5024474;28;20440;-57
2023/04/23 11:21:41;;;;;;;1.20;1.20;;;;;;;;;;5032199;28;20867;-59
2023/04/23 11:24:07;;;;;;;1.77;1.20;;;;;;;;;;5032231;28;20872;-56
2023/04/23 11:26:36;;;;;;;0.93;0.93;;;;;;;;;;5032280;28;20575;-56
2023/04/23 11:29:03;;;;;;;0.93;0.93;;;;;;;;;;5032490;28;20821;-56
2023/04/23 11:31:29;;;;;;;1.27;1.17;;;;;;;;;;5032154;28;20428;-56
2023/04/23 11:33:55;;;;;;;1.47;1.37;;;;;;;;;;5031941;28;20404;-56
2023/04/23 11:36:22;;;;;;;0.97;0.97;;;;;;;;;;5032230;28;20444;-56
2023/04/23 11:38:53;;;;;;;1.40;1.10;;;;;;;;;;5032150;28;20436;-56
2023/04/23 11:41:22;;;;;;;1.13;1.03;;;;;;;;;;5032132;28;20448;-57
2023/04/23 11:43:48;;;;;;;1.43;0.90;;;;;;;;;;5032158;28;20422;-56
2023/04/23 11:46:14;;;;;;;1.20;1.20;;;;;;;;;;5031842;28;20473;-54
2023/04/23 11:48:40;;;;;;;1.00;0.90;;;;;;;;;;5032390;28;20400;-56
2023/04/23 11:51:07;;;;;;;4.47;4.13;;;;;;;;;;5035721;28;20445;-56
2023/04/23 11:53:35;;;;;;;2.60;1.33;;;;;;;;;;5035911;28;20412;-57
2023/04/23 11:56:01;;;;;;;5.70;1.30;;;;;;;;;;5034777;28;20446;-56
2023/04/23 11:58:27;;;;;;;1.63;1.17;;;;;;;;;;5035507;28;20425;-55
2023/04/23 12:01:00;;;;;;;2.70;1.03;;;;;;;;;;5035446;28;20415;-57
2023/04/23 12:03:26;;;;;;;1.10;1.00;;;;;;;;;;5035347;28;20456;-56
2023/04/23 12:05:55;;;;;;;1.37;1.27;;;;;;;;;;5035464;28;20507;-56
2023/04/23 12:08:21;;;;;;;1.20;1.10;;;;;;;;;;5035550;28;20391;-56
2023/04/23 12:10:49;;;;;;;1.67;1.13;;;;;;;;;;5035412;28;20550;-56
2023/04/23 12:13:20;;;;;;;17.40;1.10;;;;;;;;;;5035482;28;20428;-56
2023/04/23 12:16:05;;;;;;;1.50;1.40;;;;;;;;;;5034087;28;20477;-57
2023/04/23 12:18:32;;;;;;;1.63;1.27;;;;;;;;;;5033946;28;20420;-55
2023/04/23 12:21:07;;;;;;;2.40;1.27;;;;;;;;;;5035261;28;20439;-57
2023/04/23 12:23:35;;;;;;;3.77;1.53;;;;;;;;;;5035092;28;20405;-57
2023/04/23 12:26:02;;;;;;;5.97;1.60;;;;;;;;;;5035116;28;20464;-56
2023/04/23 12:28:28;;;;;;;2.40;1.20;;;;;;;;;;5035198;28;20417;-58
2023/04/23 12:30:59;;;;;;;1.83;1.20;;;;;;;;;;5034254;28;20428;-56
2023/04/23 12:33:28;;;;;;;2.20;1.40;;;;;;;;;;5034199;28;20419;-56
2023/04/23 12:35:54;;;;;;;2.13;1.53;;;;;;;;;;5034817;28;20431;-57
2023/04/23 12:38:25;;;;;;;1.90;1.63;;;;;;;;;;5034955;28;20780;-57
2023/04/23 12:40:55;;;;;;;1.67;1.57;;;;;;;;;;5034742;28;20391;-57
2023/04/23 12:43:21;;;;;;;1.73;1.63;;;;;;;;;;5034752;28;20979;-56
2023/04/23 12:45:47;;;;;;;1.87;1.40;;;;;;;;;;5033303;28;20555;-57
2023/04/23 12:48:13;;;;;;;1.40;1.30;;;;;;;;;;5034092;28;20467;-57
2023/04/23 12:50:42;;;;;;;2.23;1.20;;;;;;;;;;5034765;28;20414;-57
2023/04/23 12:53:08;;;;;;;1.60;1.60;;;;;;;;;;5034761;28;20437;-57
2023/04/23 12:55:34;;;;;;;11.47;1.47;;;;;;;;;;5034728;28;20435;-57
2023/04/23 12:58:00;;;;;;;1.37;1.27;;;;;;;;;;5034036;28;20786;-58
2023/04/23 13:00:26;;;;;;;3.40;1.80;;;;;;;;;;5033808;28;20793;-57
2023/04/23 13:02:52;;;;;;;2.23;1.60;;;;;;;;;;5034346;28;20451;-57
2023/04/23 13:05:20;;;;;;;3.83;1.37;;;;;;;;;;5034219;28;20469;-60
2023/04/23 13:07:49;;;;;;;2.83;1.40;;;;;;;;;;5034091;28;20881;-55
2023/04/23 13:10:15;;;;;;;1.23;1.07;;;;;;;;;;5033899;28;20494;-56
2023/04/23 13:12:41;;;;;;;3.23;1.40;;;;;;;;;;5034227;28;20450;-57
2023/04/23 13:15:08;;;;;;;2.07;1.47;;;;;;;;;;5034436;28;20424;-54
2023/04/23 13:17:34;;;;;;;5.30;1.53;;;;;;;;;;5034413;28;20811;-54
2023/04/23 13:20:00;;;;;;;1.30;1.30;;;;;;;;;;5034317;28;20442;-56
2023/04/23 13:22:30;;;;;;;1.30;1.20;;;;;;;;;;5034268;28;20449;-56
2023/04/23 13:24:58;;;;;;;2.63;1.30;;;;;;;;;;5034293;28;20469;-55
2023/04/23 13:27:25;;;;;;;1.23;1.00;;;;;;;;;;5034084;28;20481;-57
2023/04/23 13:29:51;;;;;;;4.47;1.40;;;;;;;;;;5034192;28;20425;-57
2023/04/23 13:32:19;;;;;;;1.40;1.30;;;;;;;;;;5033940;28;20419;-57
2023/04/23 13:34:45;;;;;;;1.70;1.20;;;;;;;;;;5032964;28;20421;-56
2023/04/23 13:37:11;;;;;;;4.07;1.30;;;;;;;;;;5033361;28;20437;-56
2023/04/23 13:39:38;;;;;;;1.13;1.03;;;;;;;;;;5033388;28;20501;-57
2023/04/23 13:42:04;;;;;;;1.70;1.13;;;;;;;;;;5033916;28;20855;-57
2023/04/23 13:44:30;;;;;;;1.80;1.43;;;;;;;;;;5032267;28;20431;-55
2023/04/23 13:46:59;;;;;;;2.23;2.03;;;;;;;;;;5033550;28;20769;-55
2023/04/23 13:49:25;;;;;;;1.10;1.10;;;;;;;;;;5033581;28;20835;-57
2023/04/23 13:51:53;;;;;;;2.20;1.00;;;;;;;;;;5032284;28;20433;-57
2023/04/23 13:54:21;;;;;;;1.43;1.23;;;;;;;;;;5033775;28;20416;-56
2023/04/23 13:56:47;;;;;;;1.37;1.23;;;;;;;;;;5032997;28;20489;-57
2023/04/23 13:59:13;;;;;;;6.03;1.20;;;;;;;;;;5033702;28;20810;-55
2023/04/23 14:01:39;;;;;;;2.00;1.23;;;;;;;;;;5033293;28;20422;-57
2023/04/23 14:04:05;;;;;;;1.80;1.20;;;;;;;;;;5033435;28;20419;-57
2023/04/23 14:06:31;;;;;;;1.20;1.20;;;;;;;;;;5033241;28;20548;-57
2023/04/23 14:09:03;;;;;;;1.47;1.47;;;;;;;;;;5033643;28;20538;-55
2023/04/23 14:11:29;;;;;;;4.43;1.33;;;;;;;;;;5032816;28;20483;-56
2023/04/23 14:13:55;;;;;;;2.50;1.43;;;;;;;;;;5032787;28;20926;-56
2023/04/23 14:16:25;;;;;;;1.53;1.53;;;;;;;;;;5033283;28;20406;-57
2023/04/23 14:18:51;;;;;;;3.63;1.13;;;;;;;;;;5033061;28;20438;-55
2023/04/23 14:21:17;;;;;;;1.93;1.07;;;;;;;;;;5033130;28;20418;-55
2023/04/23 14:23:46;;;;;;;2.40;2.00;;;;;;;;;;5032982;28;20440;-56
2023/04/23 14:26:20;;;;;;;3.93;1.33;;;;;;;;;;5032998;28;20461;-55
2023/04/23 14:28:51;;;;;;;1.70;1.60;;;;;;;;;;5031778;28;20466;-54
2023/04/23 14:31:17;;;;;;;5.80;2.47;;;;;;;;;;5031856;28;20422;-56
2023/04/23 14:33:43;;;;;;;6.63;2.10;;;;;;;;;;5032642;28;20487;-55
2023/04/23 14:36:09;;;;;;;5.73;2.40;;;;;;;;;;5032741;28;20455;-55
2023/04/23 14:38:36;;;;;;;2.03;1.83;;;;;;;;;;5032946;28;20443;-56
2023/04/23 14:41:04;;;;;;;3.87;2.20;;;;;;;;;;5032747;28;20408;-57
2023/04/23 14:43:33;;;;;;;4.27;2.30;;;;;;;;;;5032847;28;20439;-56